createdAt,value
2022-08-17T00:00:34.398Z,5.72
2022-08-17T00:03:22.513Z,5.57
2022-08-17T00:06:02.493Z,5.55
2022-08-17T00:08:35.963Z,4.97
2022-08-17T00:11:08.241Z,5.87
2022-08-17T00:13:39.224Z,6.30
2022-08-17T00:16:12.277Z,5.37
2022-08-17T00:19:01.115Z,6.53
2022-08-17T00:22:29.598Z,5.93
2022-08-17T00:24:18.382Z,6.65
2022-08-17T00:26:46.405Z,5.50
2022-08-17T00:29:19.326Z,5.65
2022-08-17T00:31:47.521Z,5.72
2022-08-17T00:34:15.229Z,5.90
2022-08-17T00:36:42.873Z,5.75
2022-08-17T00:39:10.562Z,5.80
2022-08-17T00:41:42.244Z,5.72
2022-08-17T00:44:10.801Z,6.35
2022-08-17T00:46:43.164Z,5.82
2022-08-17T00:49:13.658Z,6.32
2022-08-17T00:51:53.040Z,6.62
2022-08-17T00:54:41.993Z,6.10
2022-08-17T00:57:14.762Z,6.03
2022-08-17T01:00:01.731Z,6.43
2022-08-17T01:02:41.996Z,6.62
2022-08-17T01:05:15.910Z,6.93
2022-08-17T01:07:48.848Z,6.72
2022-08-17T01:10:59.503Z,6.53
2022-08-17T01:13:08.483Z,7.15
2022-08-17T01:15:46.091Z,6.65
2022-08-17T01:18:15.525Z,6.40
2022-08-17T01:20:51.606Z,5.87
2022-08-17T01:23:22.293Z,6.50
2022-08-17T01:25:56.314Z,6.72
2022-08-17T01:28:52.568Z,7.35
2022-08-17T01:31:14.329Z,6.18
2022-08-17T01:33:42.122Z,5.75
2022-08-17T01:36:10.458Z,6.30
2022-08-17T01:38:40.226Z,5.68
2022-08-17T01:41:13.347Z,5.70
2022-08-17T01:43:46.438Z,5.28
2022-08-17T01:46:22.877Z,4.80
2022-08-17T01:48:52.246Z,5.47
2022-08-17T01:51:21.082Z,4.82
2022-08-17T01:53:53.047Z,5.30
2022-08-17T01:56:24.093Z,5.30
2022-08-17T01:58:52.472Z,6.10
2022-08-17T02:01:24.719Z,5.53
2022-08-17T02:03:56.215Z,6.22
2022-08-17T02:06:45.303Z,5.55
2022-08-17T02:09:25.935Z,5.87
2022-08-17T02:11:56.223Z,6.45
2022-08-17T02:14:25.047Z,6.35
2022-08-17T02:16:53.286Z,6.28
2022-08-17T02:19:21.409Z,6.37
2022-08-17T02:21:51.138Z,5.97
2022-08-17T02:24:58.271Z,6.20
2022-08-17T02:27:11.956Z,6.28
2022-08-17T02:29:39.724Z,6.28
2022-08-17T02:32:07.693Z,6.65
2022-08-17T02:34:35.381Z,6.15
2022-08-17T02:37:03.086Z,6.37
2022-08-17T02:39:30.792Z,6.53
2022-08-17T02:42:03.867Z,6.00
2022-08-17T02:44:38.963Z,6.53
2022-08-17T02:47:11.389Z,6.25
2022-08-17T02:49:39.336Z,6.78
2022-08-17T02:52:08.747Z,6.45
2022-08-17T02:54:41.067Z,6.18
2022-08-17T02:57:10.108Z,6.25
2022-08-17T02:59:42.380Z,6.53
2022-08-17T03:02:14.524Z,6.90
2022-08-17T03:04:42.199Z,7.03
2022-08-17T03:07:09.968Z,6.70
2022-08-17T03:09:37.618Z,6.75
2022-08-17T03:12:14.663Z,6.65
2022-08-17T03:14:44.054Z,6.37
2022-08-17T03:17:17.070Z,6.18
2022-08-17T03:19:45.689Z,6.72
2022-08-17T03:22:37.376Z,6.50
2022-08-17T03:25:01.146Z,6.65
2022-08-17T03:27:29.964Z,7.03
2022-08-17T03:29:57.799Z,6.43
2022-08-17T03:32:25.444Z,5.72
2022-08-17T03:34:53.102Z,5.75
2022-08-17T03:37:20.768Z,5.82
2022-08-17T03:39:48.662Z,5.72
2022-08-17T03:42:32.224Z,5.62
2022-08-17T03:45:02.087Z,6.35
2022-08-17T03:47:48.649Z,5.40
2022-08-17T03:50:36.867Z,5.37
2022-08-17T03:53:27.238Z,6.37
2022-08-17T03:56:13.815Z,5.87
2022-08-17T03:58:41.491Z,5.40
2022-08-17T04:01:09.407Z,5.28
2022-08-17T04:03:37.303Z,5.47
2022-08-17T04:06:05.010Z,5.57
2022-08-17T04:08:32.837Z,5.70
2022-08-17T04:11:01.954Z,5.00
2022-08-17T04:13:29.630Z,5.53
2022-08-17T04:15:58.377Z,5.55
2022-08-17T04:18:27.123Z,5.82
2022-08-17T04:20:55.055Z,6.22
2022-08-17T04:23:24.671Z,6.40
2022-08-17T04:25:52.465Z,6.10
2022-08-17T04:28:20.832Z,5.85
2022-08-17T04:30:49.033Z,6.03
2022-08-17T04:33:20.102Z,6.07
2022-08-17T04:35:51.159Z,5.87
2022-08-17T04:38:26.319Z,5.80
2022-08-17T04:41:13.393Z,5.85
2022-08-17T04:43:43.006Z,6.05
2022-08-17T04:46:16.600Z,5.18
2022-08-17T04:48:51.481Z,5.85
2022-08-17T04:51:23.373Z,5.82
2022-08-17T04:53:54.709Z,5.45
2022-08-17T04:56:24.120Z,5.22
2022-08-17T04:58:54.384Z,5.47
2022-08-17T05:01:24.524Z,5.75
2022-08-17T05:03:54.368Z,5.00
2022-08-17T05:06:23.158Z,6.12
2022-08-17T05:08:50.910Z,5.53
2022-08-17T05:11:18.688Z,5.82
2022-08-17T05:13:46.477Z,5.80
2022-08-17T05:16:14.235Z,5.53
2022-08-17T05:18:41.989Z,5.85
2022-08-17T05:21:09.822Z,5.95
2022-08-17T05:23:43.023Z,5.30
2022-08-17T05:26:25.925Z,5.37
2022-08-17T05:28:57.170Z,5.45
2022-08-17T05:31:29.885Z,5.70
2022-08-17T05:33:57.971Z,6.22
2022-08-17T05:36:43.022Z,5.00
2022-08-17T05:39:15.930Z,5.18
2022-08-17T05:41:44.524Z,5.78
2022-08-17T05:44:12.244Z,5.60
2022-08-17T05:46:44.638Z,4.97
2022-08-17T05:49:15.891Z,5.03
2022-08-17T05:52:02.188Z,4.47
2022-08-17T05:54:32.843Z,4.60
2022-08-17T05:57:21.876Z,4.37
2022-08-17T06:00:12.000Z,4.05
2022-08-17T06:03:16.503Z,4.10
2022-08-17T06:06:21.981Z,4.45
2022-08-17T06:09:10.625Z,4.00
2022-08-17T06:11:48.205Z,4.03
2022-08-17T06:14:27.148Z,4.47
2022-08-17T06:17:01.838Z,4.60
2022-08-17T06:19:49.744Z,4.68
2022-08-17T06:22:21.622Z,4.20
2022-08-17T06:24:57.971Z,4.45
2022-08-17T06:27:44.165Z,4.45
2022-08-17T06:30:29.363Z,4.37
2022-08-17T06:33:29.413Z,4.00
2022-08-17T06:36:07.966Z,4.25
2022-08-17T06:38:50.981Z,4.62
2022-08-17T06:41:44.639Z,4.12
2022-08-17T06:44:43.211Z,4.18
2022-08-17T06:47:46.009Z,4.37
2022-08-17T06:50:37.046Z,4.40
2022-08-17T06:53:13.014Z,4.37
2022-08-17T06:55:56.698Z,3.87
2022-08-17T06:58:29.703Z,4.30
2022-08-17T07:01:02.031Z,4.60
2022-08-17T07:03:47.702Z,4.57
2022-08-17T07:06:38.377Z,4.15
2022-08-17T07:09:16.919Z,4.90
2022-08-17T07:11:53.042Z,4.37
2022-08-17T07:14:55.162Z,4.65
2022-08-17T07:17:47.029Z,4.28
2022-08-17T07:20:18.838Z,4.05
2022-08-17T07:22:59.655Z,4.20
2022-08-17T07:25:29.633Z,4.12
2022-08-17T07:28:01.439Z,4.47
2022-08-17T07:30:37.110Z,4.10
2022-08-17T07:33:15.532Z,4.20
2022-08-17T07:35:46.061Z,3.62
2022-08-17T07:38:24.763Z,4.15
2022-08-17T07:41:03.357Z,3.83
2022-08-17T07:43:42.384Z,3.97
2022-08-17T07:46:37.854Z,3.95
2022-08-17T07:49:06.152Z,3.78
2022-08-17T07:51:43.913Z,4.00
2022-08-17T07:54:17.646Z,3.55
2022-08-17T07:56:54.577Z,3.60
2022-08-17T07:59:33.909Z,3.62
2022-08-17T08:02:10.463Z,4.30
2022-08-17T08:05:00.706Z,3.87
2022-08-17T08:07:56.079Z,3.90
2022-08-17T08:10:37.837Z,3.65
2022-08-17T08:13:12.174Z,3.62
2022-08-17T08:15:53.725Z,4.15
2022-08-17T08:18:56.777Z,3.90
2022-08-17T08:21:37.984Z,4.18
2022-08-17T08:24:32.987Z,4.10
2022-08-17T08:27:20.876Z,4.07
2022-08-17T08:30:08.842Z,3.80
2022-08-17T08:32:57.354Z,4.12
2022-08-17T08:35:39.193Z,4.18
2022-08-17T08:38:16.012Z,3.17
2022-08-17T08:40:52.691Z,3.78
2022-08-17T08:43:53.232Z,4.15
2022-08-17T08:46:27.011Z,3.60
2022-08-17T08:49:14.751Z,3.97
2022-08-17T08:51:58.326Z,4.35
2022-08-17T08:54:50.316Z,3.92
2022-08-17T08:57:35.489Z,3.65
2022-08-17T09:00:16.956Z,4.00
2022-08-17T09:02:56.337Z,4.05
2022-08-17T09:05:58.205Z,3.95
2022-08-17T09:08:35.047Z,3.75
2022-08-17T09:11:15.727Z,4.18
2022-08-17T09:13:54.660Z,4.35
2022-08-17T09:16:30.680Z,4.10
2022-08-17T09:19:22.133Z,4.25
2022-08-17T09:22:18.662Z,4.25
2022-08-17T09:24:55.752Z,3.70
2022-08-17T09:27:31.646Z,3.50
2022-08-17T09:30:03.673Z,4.00
2022-08-17T09:32:53.195Z,4.25
2022-08-17T09:35:32.790Z,4.35
2022-08-17T09:38:42.813Z,3.87
2022-08-17T09:41:21.373Z,4.60
2022-08-17T09:44:22.658Z,4.43
2022-08-17T09:46:54.847Z,4.70
2022-08-17T09:49:46.328Z,4.20
2022-08-17T09:52:24.633Z,4.47
2022-08-17T09:54:55.522Z,4.55
2022-08-17T09:57:38.421Z,3.90
2022-08-17T10:00:17.380Z,4.37
2022-08-17T10:03:22.114Z,4.30
2022-08-17T10:06:07.634Z,3.92
2022-08-17T10:09:07.591Z,4.70
2022-08-17T10:12:10.499Z,3.83
2022-08-17T10:14:55.046Z,4.47
2022-08-17T10:17:41.462Z,4.82
2022-08-17T10:20:31.350Z,4.15
2022-08-17T10:23:20.204Z,3.87
2022-08-17T10:26:16.565Z,3.92
2022-08-17T10:29:10.562Z,4.07
2022-08-17T10:31:47.166Z,4.03
2022-08-17T10:34:23.684Z,3.87
2022-08-17T10:37:07.914Z,4.20
2022-08-17T10:39:52.214Z,3.53
2022-08-17T10:42:36.443Z,4.15
2022-08-17T10:45:19.419Z,4.30
2022-08-17T10:48:24.085Z,4.03
2022-08-17T10:50:58.751Z,3.97
2022-08-17T10:53:32.498Z,4.20
2022-08-17T10:56:15.362Z,3.47
2022-08-17T10:58:56.625Z,4.15
2022-08-17T11:01:33.487Z,3.92
2022-08-17T11:04:38.869Z,3.90
2022-08-17T11:07:26.874Z,3.75
2022-08-17T11:10:17.972Z,3.62
2022-08-17T11:12:57.026Z,3.97
2022-08-17T11:15:27.393Z,3.37
2022-08-17T11:18:04.454Z,3.65
2022-08-17T11:20:50.329Z,3.60
2022-08-17T11:23:27.081Z,4.10
2022-08-17T11:25:57.726Z,3.62
2022-08-17T11:28:37.002Z,3.60
2022-08-17T11:31:11.057Z,3.80
2022-08-17T11:33:42.434Z,3.55
2022-08-17T11:36:15.858Z,3.90
2022-08-17T11:38:55.096Z,3.30
2022-08-17T11:42:06.683Z,3.70
2022-08-17T11:44:54.696Z,3.45
2022-08-17T11:48:26.574Z,3.25
2022-08-17T11:51:32.407Z,3.33
2022-08-17T11:54:33.600Z,3.65
2022-08-17T11:57:27.698Z,4.97
2022-08-17T12:00:12.624Z,3.40
2022-08-17T12:02:48.478Z,3.70
2022-08-17T12:05:17.925Z,3.90
2022-08-17T12:08:05.560Z,3.10
2022-08-17T12:10:39.510Z,3.20
2022-08-17T12:13:13.790Z,3.30
2022-08-17T12:15:49.871Z,3.55
2022-08-17T12:18:30.206Z,3.12
2022-08-17T12:21:23.646Z,3.20
2022-08-17T12:24:10.049Z,3.20
2022-08-17T12:26:38.156Z,3.80
2022-08-17T12:29:17.808Z,3.20
2022-08-17T12:32:03.533Z,3.05
2022-08-17T12:34:39.379Z,3.72
2022-08-17T12:37:16.276Z,3.30
2022-08-17T12:39:55.717Z,3.60
2022-08-17T12:42:30.479Z,4.00
2022-08-17T12:44:58.967Z,3.40
2022-08-17T12:47:29.420Z,4.20
2022-08-17T12:50:28.253Z,3.37
2022-08-17T12:53:02.006Z,2.87
2022-08-17T12:55:36.750Z,3.12
2022-08-17T12:58:04.600Z,3.00
2022-08-17T13:00:35.880Z,2.87
2022-08-17T13:03:14.275Z,3.37
2022-08-17T13:05:54.840Z,4.05
2022-08-17T13:08:30.110Z,3.53
2022-08-17T13:11:01.205Z,3.30
2022-08-17T13:13:32.355Z,3.55
2022-08-17T13:16:06.729Z,3.22
2022-08-17T13:18:46.233Z,3.40
2022-08-17T13:21:28.764Z,3.35
2022-08-17T13:24:11.718Z,3.20
2022-08-17T13:26:44.830Z,3.55
2022-08-17T13:29:26.790Z,3.60
2022-08-17T13:32:18.013Z,3.33
2022-08-17T13:35:12.622Z,3.47
2022-08-17T13:37:42.708Z,3.40
2022-08-17T13:40:10.504Z,3.20
2022-08-17T13:42:52.086Z,3.40
2022-08-17T13:45:36.720Z,3.40
2022-08-17T13:48:11.134Z,3.37
2022-08-17T13:50:56.879Z,3.47
2022-08-17T13:53:40.397Z,3.92
2022-08-17T13:56:33.531Z,3.85
2022-08-17T13:59:10.889Z,3.53
2022-08-17T14:01:53.877Z,3.65
2022-08-17T14:04:29.149Z,3.53
2022-08-17T14:07:02.716Z,3.75
2022-08-17T14:09:37.209Z,3.58
2022-08-17T14:12:10.730Z,3.50
2022-08-17T14:14:39.124Z,3.47
2022-08-17T14:17:06.937Z,3.55
2022-08-17T14:19:36.309Z,3.78
2022-08-17T14:22:06.068Z,3.50
2022-08-17T14:24:44.157Z,3.80
2022-08-17T14:27:13.103Z,3.45
2022-08-17T14:29:42.305Z,4.00
2022-08-17T14:32:20.237Z,4.20
2022-08-17T14:34:50.595Z,4.43
2022-08-17T14:37:22.264Z,3.83
2022-08-17T14:39:50.042Z,3.90
2022-08-17T14:42:18.667Z,4.15
2022-08-17T14:44:46.379Z,3.90
2022-08-17T14:47:16.867Z,3.80
2022-08-17T14:49:47.579Z,4.25
2022-08-17T14:52:17.903Z,4.07
2022-08-17T14:54:46.016Z,3.83
2022-08-17T14:57:24.837Z,3.87
2022-08-17T15:00:02.374Z,4.40
2022-08-17T15:02:31.261Z,3.60
2022-08-17T15:05:04.715Z,3.83
2022-08-17T15:07:32.543Z,3.87
2022-08-17T15:10:02.318Z,3.92
2022-08-17T15:12:33.970Z,3.70
2022-08-17T15:15:04.875Z,4.10
2022-08-17T15:17:44.906Z,4.30
2022-08-17T15:20:29.446Z,3.78
2022-08-17T15:22:59.848Z,4.35
2022-08-17T15:25:31.448Z,3.80
2022-08-17T15:28:00.151Z,4.03
2022-08-17T15:30:28.785Z,3.87
2022-08-17T15:32:58.464Z,4.28
2022-08-17T15:35:29.472Z,4.15
2022-08-17T15:38:11.181Z,4.22
2022-08-17T15:40:44.113Z,4.15
2022-08-17T15:43:29.086Z,3.65
2022-08-17T15:46:13.295Z,4.35
2022-08-17T15:48:43.646Z,4.15
2022-08-17T15:51:17.613Z,3.95
2022-08-17T15:53:48.975Z,4.10
2022-08-17T15:56:17.383Z,3.90
2022-08-17T15:58:47.817Z,3.95
2022-08-17T16:01:31.342Z,4.15
2022-08-17T16:04:21.281Z,4.20
2022-08-17T16:06:54.699Z,4.07
2022-08-17T16:09:22.393Z,4.45
2022-08-17T16:11:52.106Z,3.95
2022-08-17T16:14:23.199Z,4.22
2022-08-17T16:16:52.106Z,3.78
2022-08-17T16:19:19.847Z,4.40
2022-08-17T16:21:47.617Z,4.40
2022-08-17T16:24:15.322Z,4.10
2022-08-17T16:26:43.498Z,4.03
2022-08-17T16:29:11.237Z,4.15
2022-08-17T16:31:39.714Z,4.10
2022-08-17T16:34:16.775Z,4.37
2022-08-17T16:36:51.874Z,4.03
2022-08-17T16:39:28.469Z,4.05
2022-08-17T16:41:56.994Z,4.30
2022-08-17T16:44:24.974Z,4.55
2022-08-17T16:46:52.719Z,4.72
2022-08-17T16:49:35.195Z,4.15
2022-08-17T16:52:11.359Z,4.43
2022-08-17T16:54:44.553Z,3.97
2022-08-17T16:57:14.242Z,4.28
2022-08-17T16:59:47.794Z,4.12
2022-08-17T17:02:24.559Z,4.40
2022-08-17T17:05:29.470Z,3.95
2022-08-17T17:08:10.160Z,4.15
2022-08-17T17:10:56.963Z,3.78
2022-08-17T17:13:40.413Z,3.28
2022-08-17T17:16:25.062Z,3.78
2022-08-17T17:19:34.628Z,3.80
2022-08-17T17:22:25.629Z,3.12
2022-08-17T17:25:17.916Z,3.72
2022-08-17T17:28:05.659Z,3.95
2022-08-17T17:31:04.653Z,3.65
2022-08-17T17:33:43.203Z,3.10
2022-08-17T17:36:37.500Z,3.72
2022-08-17T17:39:14.459Z,3.65
2022-08-17T17:42:12.575Z,3.80
2022-08-17T17:44:51.453Z,3.75
2022-08-17T17:47:19.189Z,3.92
2022-08-17T17:49:49.851Z,3.60
2022-08-17T17:52:42.077Z,3.67
2022-08-17T17:55:31.068Z,3.80
2022-08-17T17:58:40.573Z,3.33
2022-08-17T18:01:20.210Z,3.80
2022-08-17T18:04:32.151Z,3.78
2022-08-17T18:07:39.123Z,3.08
2022-08-17T18:10:29.472Z,3.37
2022-08-17T18:13:01.668Z,3.58
2022-08-17T18:16:01.722Z,3.67
2022-08-17T18:18:38.689Z,3.75
2022-08-17T18:21:16.891Z,4.45
2022-08-17T18:23:49.828Z,3.67
2022-08-17T18:26:35.861Z,3.70
2022-08-17T18:29:33.007Z,3.40
2022-08-17T18:32:18.641Z,3.87
2022-08-17T18:34:49.164Z,3.90
2022-08-17T18:37:48.891Z,3.80
2022-08-17T18:40:20.342Z,3.47
2022-08-17T18:42:57.836Z,3.97
2022-08-17T18:45:53.530Z,3.95
2022-08-17T18:48:34.921Z,3.95
2022-08-17T18:51:41.780Z,3.85
2022-08-17T18:54:22.883Z,3.80
2022-08-17T18:56:55.452Z,3.17
2022-08-17T18:59:46.690Z,3.00
2022-08-17T19:02:27.402Z,3.20
2022-08-17T19:05:14.373Z,3.57
2022-08-17T19:07:47.986Z,3.60
2022-08-17T19:10:46.343Z,3.35
2022-08-17T19:13:23.958Z,3.70
2022-08-17T19:16:07.799Z,3.28
2022-08-17T19:19:04.953Z,3.75
2022-08-17T19:21:57.167Z,3.33
2022-08-17T19:24:27.744Z,3.25
2022-08-17T19:27:19.031Z,3.28
2022-08-17T19:30:07.152Z,3.17
2022-08-17T19:32:36.856Z,3.50
2022-08-17T19:35:11.398Z,3.10
2022-08-17T19:38:03.767Z,3.30
2022-08-17T19:41:02.358Z,3.40
2022-08-17T19:44:10.593Z,3.28
2022-08-17T19:47:00.653Z,3.53
2022-08-17T19:49:52.054Z,3.60
2022-08-17T19:52:51.436Z,3.15
2022-08-17T19:56:00.851Z,3.08
2022-08-17T19:58:51.905Z,3.47
2022-08-17T20:01:46.298Z,3.60
2022-08-17T20:04:40.215Z,3.05
2022-08-17T20:07:13.163Z,3.60
2022-08-17T20:09:47.681Z,3.40
2022-08-17T20:12:19.410Z,3.70
2022-08-17T20:14:56.120Z,4.00
2022-08-17T20:17:28.642Z,3.62
2022-08-17T20:20:20.726Z,3.58
2022-08-17T20:23:00.469Z,3.92
2022-08-17T20:25:58.511Z,4.18
2022-08-17T20:28:31.538Z,3.70
2022-08-17T20:30:59.688Z,3.65
2022-08-17T20:33:38.088Z,4.03
2022-08-17T20:36:21.448Z,4.03
2022-08-17T20:38:58.507Z,4.00
2022-08-17T20:41:29.496Z,3.70
2022-08-17T20:44:00.251Z,4.20
2022-08-17T20:46:37.053Z,3.72
2022-08-17T20:49:29.885Z,4.07
2022-08-17T20:52:11.320Z,3.65
2022-08-17T20:54:55.680Z,4.18
2022-08-17T20:57:32.624Z,3.85
2022-08-17T21:00:18.370Z,3.75
2022-08-17T21:02:50.651Z,3.70
2022-08-17T21:05:34.267Z,2.97
2022-08-17T21:08:17.146Z,3.70
2022-08-17T21:10:48.110Z,3.25
2022-08-17T21:13:15.905Z,3.30
2022-08-17T21:15:43.637Z,3.28
2022-08-17T21:18:40.247Z,3.12
2022-08-17T21:21:18.716Z,3.28
2022-08-17T21:24:20.430Z,3.35
2022-08-17T21:27:02.489Z,3.17
2022-08-17T21:29:34.010Z,3.20
2022-08-17T21:32:06.701Z,3.33
2022-08-17T21:35:07.451Z,3.28
2022-08-17T21:37:47.561Z,3.50
2022-08-17T21:40:19.301Z,3.85
2022-08-17T21:42:51.657Z,3.15
2022-08-17T21:45:25.521Z,3.00
2022-08-17T21:48:16.022Z,3.15
2022-08-17T21:51:04.832Z,3.17
2022-08-17T21:53:43.350Z,3.20
2022-08-17T21:56:13.825Z,3.12
2022-08-17T21:58:48.418Z,3.10
2022-08-17T22:01:29.414Z,3.15
2022-08-17T22:04:19.007Z,2.83
2022-08-17T22:06:57.169Z,3.35
2022-08-17T22:09:43.067Z,2.95
2022-08-17T22:12:18.269Z,3.45
2022-08-17T22:14:59.334Z,3.62
2022-08-17T22:17:30.886Z,3.22
2022-08-17T22:20:08.081Z,3.45
2022-08-17T22:23:00.291Z,2.87
2022-08-17T22:25:29.405Z,3.17
2022-08-17T22:28:01.153Z,3.40
2022-08-17T22:30:34.194Z,3.65
2022-08-17T22:33:23.651Z,3.53
2022-08-17T22:36:10.244Z,3.40
2022-08-17T22:38:38.861Z,3.40
2022-08-17T22:41:20.023Z,3.62
2022-08-17T22:43:47.965Z,3.42
2022-08-17T22:46:16.405Z,3.90
2022-08-17T22:48:51.355Z,4.32
2022-08-17T22:51:23.699Z,3.67
2022-08-17T22:54:17.152Z,3.70
2022-08-17T22:57:10.552Z,3.45
2022-08-17T22:59:50.382Z,3.75
2022-08-17T23:02:20.791Z,3.90
2022-08-17T23:04:55.646Z,4.30
2022-08-17T23:07:23.391Z,4.12
2022-08-17T23:09:53.534Z,3.72
2022-08-17T23:12:27.381Z,3.97
2022-08-17T23:15:02.924Z,4.30
2022-08-17T23:17:37.438Z,3.62
2022-08-17T23:20:09.393Z,4.10
2022-08-17T23:22:52.239Z,3.50
2022-08-17T23:25:28.950Z,4.22
2022-08-17T23:27:59.472Z,3.92
2022-08-17T23:30:29.605Z,3.83
2022-08-17T23:33:01.177Z,3.65
2022-08-17T23:35:38.983Z,3.70
2022-08-17T23:38:12.993Z,3.65
2022-08-17T23:40:41.704Z,3.92
2022-08-17T23:43:23.607Z,3.25
2022-08-17T23:45:55.071Z,3.47
2022-08-17T23:48:28.490Z,3.87
2022-08-17T23:51:15.759Z,3.65
2022-08-17T23:53:52.160Z,3.72
2022-08-17T23:56:25.683Z,3.70
2022-08-17T23:58:55.902Z,3.80
